Hauptseite
METAR-TAF:

METAR-TAF

Flughäfen :

Fliegerhorst Faßberg

Faßberg, Deutschland

Breite: 52-55N, Länge: 010-11E, Höhe: 75 m

Beobachtung

Neuester Wetterbericht von vor 30 Minuten, um 01:20 UTC
Wind 8 kt aus Süd/Südost
Temperatur 10°C
Luftfeuchtigkeit 93%
Luftdruck 996 hPa
Sichtweite: 8000 m
Aufgelockert bewölkt in der Höhe von 400 ft
Durchbrochene Bewölkung in der Höhe von 900 ft

METAR: ETHS 270120Z 15008KT 8000 SCT004 BKN009 10/09 Q0996 GRN

Zeit: 03:50 (01:50 UTC)


TAF: fehlend

Wetterbeobachtungen und Prognosen von mehr als 4000 Flughäfen (METAR und TAF Bericht).

Die verfügbaren Stationen werden durch gelbe und rote Markierungen auf der Karte dargestellt.

Führen Sie die Maus auf sie, um den Namen der Station zu sehen.

Darauf klicken, um die Beobachtung von Wetterbeobachtungen und Prognosen zu sehen.

Um die Karte zu ändern : klicken Sie auf den grünen Tasten mit einem schwarzen Kreuz Zum Vergrößern, auf den grünen Button mit einem Gedankenstrich zu verkleinern, oder auf die grünen Pfeile für benachbarte Karten.


METAR-TAF: